Aérodrome :
LOGIN :

S'inscrire | Disclaimer

   EN    FR    IT 

 










Légende :    VFR   VFR Marginal   IFR   IFR Intensif   IFR Très Intensif
Visi : 
Plafond : 
>= 8 km
>= 3000ft
5 à 8 km
1000 à 3000 ft
1500m à 5 km
500 à 1000 ft
800 à 1500m
200 à 500 ft
< 800m
< 200 ft
Symboles :   Orages  Brouillard  Fortes neiges  Fortes précipitations  Vent > 20 kt
SIGMETs :   Divers  Orages  Givrage  Turbulence  Onde Orograph.  Cendres Volcan.







- Altitude de l'aérodrome : 26 ft
- Code IATA : BIA
- Voir les cartes d'approche


LFKB - Bastia

DERNIER METAR :
  • 271330Z AUTO 36009KT 330V030 9999 FEW017 BKN098 21/16 Q1006 NOSIG

METARs EXPIRÉS :
  • 271300Z AUTO 35008KT 9999 SCT016 BKN029 BKN052 20/16 Q1006 TEMPO RA OVC013
  • 271230Z AUTO 03007KT 360V060 9999 SCT019 BKN032 BKN048 21/17 Q1007 TEMPO RA OVC013
  • 271200Z AUTO 03006KT 9999 SCT018 SCT027 BKN047 19/16 Q1007 TEMPO RA OVC013
  • 271130Z AUTO 33005KT 300V360 9999 BKN014 BKN038 BKN048 19/15 Q1007 TEMPO RA
  • 271100Z AUTO 01006KT 9999 BKN014 BKN021 OVC037 18/16 Q1007 TEMPO RA

TAF AMD TAF LFKB
Valide du 27 à 10h jusqu'au 28 à 09h UTC


271011Z 2710/2809 02008KT 9999 SCT014 OVC018 TX20/2712Z TN13/2803Z
TEMPO 2710/2714 7000 RA OVC013
BECMG 2715/2718 SCT020 BKN080
BECMG 2718/2721 34008KT
ATIS : +33 4 95 59 19 40
Pas de NOTAMs connus pour ce terrain.



MET'MAP, la Météo Aéronautique d'un coup d'oeil ! - Copyright ORBIFLY Décembre 2007 - Disclaimer

ORBIFLY MET'MAP TEAM :

Programmation & Développement : Alexandra Zaïnal
Conception & Développement : Baudouin d'Aumeries
Co-Programmation & Développement : Marc-Olivier Méhu
Soutien technique & logistique : Manuel Goepfert

Contact : metmap@orbifly.com




SOURCES & CREDITS :

   NOAA